< Cyclone 199913 1999 Season Cyclone 200001 >
Cyclone 199914 (HAMISH)
General InformationTrack Information on Google MapsDetailed Wind InformationList of All Images || ResourceGoogle EarthGE AnimationAtom FeedGeoJSON
Detalied Best Track (Time Zone = UTC)
Year Month Day Hour Lat. Long. Pressure (hPa) Wind (kt) Class Image Chart
1999 4 19 10 -10.4 93.6 1002 23 2 Image --
1999 4 19 13 -10.9 93.4 1002 23 2 Image --
1999 4 19 16 -11.3 93.2 1002 23 2 Image --
1999 4 19 19 -11.4 93.1 1000 27 2 Image --
1999 4 19 22 -11.5 93.0 1000 27 2 Image --
1999 4 20 01 -11.6 92.9 1000 27 2 Image --
1999 4 20 04 -11.9 92.8 998 29 2 Image --
1999 4 20 07 -12.5 92.7 995 35 3 Image --
1999 4 20 10 -13.0 92.7 990 41 3 Image --
1999 4 20 13 -13.4 92.5 985 49 4 Image --
1999 4 20 16 -13.6 92.2 980 54 4 Image --
1999 4 20 19 -13.8 91.8 980 54 4 Image --
1999 4 20 22 -13.9 91.5 980 54 4 Image --
1999 4 21 01 -14.3 91.3 980 54 4 Image --
1999 4 21 04 -14.6 91.1 985 49 4 Image --
1999 4 21 07 -14.8 90.8 985 49 4 Image --
1999 4 21 10 -15.1 90.5 990 41 3 Image --
1999 4 21 13 -15.3 90.2 995 35 3 Image --
1999 4 21 16 -15.5 89.8 998 29 2 Image --
1999 4 21 19 -15.7 89.4 998 29 2 Image --
1999 4 21 22 -15.8 89.1 1000 27 2 Image --
< Cyclone 199913 1999 Season Cyclone 200001 >

Help